sensor_id;sensor_type;location;lat;lon;timestamp;pressure;altitude;pressure_sealevel;temperature;humidity
60345;BME280;46188;52.324;8.032;2023-03-16T00:00:48;100852.56;;;0.49;82.73
60345;BME280;46188;52.324;8.032;2023-03-16T00:03:13;100859.75;;;0.53;82.80
60345;BME280;46188;52.324;8.032;2023-03-16T00:05:51;100864.00;;;0.53;82.94
60345;BME280;46188;52.324;8.032;2023-03-16T00:08:17;100864.56;;;0.47;83.21
60345;BME280;46188;52.324;8.032;2023-03-16T00:10:43;100867.25;;;0.49;83.24
60345;BME280;46188;52.324;8.032;2023-03-16T00:13:16;100869.94;;;0.50;83.50
60345;BME280;46188;52.324;8.032;2023-03-16T00:15:55;100863.88;;;0.50;83.77
60345;BME280;46188;52.324;8.032;2023-03-16T00:18:23;100869.66;;;0.46;84.14
60345;BME280;46188;52.324;8.032;2023-03-16T00:21:01;100866.19;;;0.45;83.92
60345;BME280;46188;52.324;8.032;2023-03-16T00:23:27;100867.91;;;0.45;84.55
60345;BME280;46188;52.324;8.032;2023-03-16T00:25:54;100874.94;;;0.47;84.56
60345;BME280;46188;52.324;8.032;2023-03-16T00:28:20;100868.50;;;0.41;85.27
60345;BME280;46188;52.324;8.032;2023-03-16T00:30:46;100868.31;;;0.38;85.53
60345;BME280;46188;52.324;8.032;2023-03-16T00:33:12;100861.19;;;0.33;85.87
60345;BME280;46188;52.324;8.032;2023-03-16T00:35:37;100859.28;;;0.31;86.10
60345;BME280;46188;52.324;8.032;2023-03-16T00:38:03;100861.19;;;0.33;86.04
60345;BME280;46188;52.324;8.032;2023-03-16T00:40:28;100860.34;;;0.34;86.15
60345;BME280;46188;52.324;8.032;2023-03-16T00:42:54;100851.59;;;0.32;86.26
60345;BME280;46188;52.324;8.032;2023-03-16T00:45:19;100850.63;;;0.30;85.80
60345;BME280;46188;52.324;8.032;2023-03-16T00:47:45;100844.38;;;0.27;86.33
60345;BME280;46188;52.324;8.032;2023-03-16T00:50:10;100841.69;;;0.25;86.72
60345;BME280;46188;52.324;8.032;2023-03-16T00:52:35;100846.97;;;0.27;86.52
60345;BME280;46188;52.324;8.032;2023-03-16T00:55:01;100839.97;;;0.26;86.22
60345;BME280;46188;52.324;8.032;2023-03-16T00:57:29;100838.09;;;0.23;87.25
60345;BME280;46188;52.324;8.032;2023-03-16T00:59:54;100836.31;;;0.22;87.36
60345;BME280;46188;52.324;8.032;2023-03-16T01:02:20;100841.31;;;0.19;87.53
60345;BME280;46188;52.324;8.032;2023-03-16T01:04:49;100839.38;;;0.15;87.77
60345;BME280;46188;52.324;8.032;2023-03-16T01:07:16;100833.81;;;0.09;88.48
60345;BME280;46188;52.324;8.032;2023-03-16T01:09:42;100842.56;;;0.11;88.47
60345;BME280;46188;52.324;8.032;2023-03-16T01:12:10;100840.84;;;0.11;88.32
60345;BME280;46188;52.324;8.032;2023-03-16T01:14:36;100845.81;;;0.07;88.29
60345;BME280;46188;52.324;8.032;2023-03-16T01:17:03;100844.00;;;0.06;88.89
60345;BME280;46188;52.324;8.032;2023-03-16T01:19:30;100848.44;;;0.08;89.17
60345;BME280;46188;52.324;8.032;2023-03-16T01:21:59;100845.53;;;0.02;89.50
60345;BME280;46188;52.324;8.032;2023-03-16T01:24:26;100830.75;;;0.01;89.21
60345;BME280;46188;52.324;8.032;2023-03-16T01:26:51;100822.88;;;-0.01;89.92
60345;BME280;46188;52.324;8.032;2023-03-16T01:29:16;100823.63;;;-0.03;90.12
60345;BME280;46188;52.324;8.032;2023-03-16T01:31:42;100815.03;;;-0.02;90.32
60345;BME280;46188;52.324;8.032;2023-03-16T01:34:07;100810.75;;;-0.02;90.60
60345;BME280;46188;52.324;8.032;2023-03-16T01:36:32;100812.34;;;-0.04;90.76
60345;BME280;46188;52.324;8.032;2023-03-16T01:38:58;100802.88;;;-0.03;90.75
60345;BME280;46188;52.324;8.032;2023-03-16T01:41:24;100802.16;;;-0.01;90.94
60345;BME280;46188;52.324;8.032;2023-03-16T01:43:51;100796.09;;;-0.01;91.14
60345;BME280;46188;52.324;8.032;2023-03-16T01:46:26;100784.75;;;-0.03;91.70
60345;BME280;46188;52.324;8.032;2023-03-16T01:49:01;100782.66;;;-0.09;91.71
60345;BME280;46188;52.324;8.032;2023-03-16T01:51:37;100782.84;;;-0.06;91.90
60345;BME280;46188;52.324;8.032;2023-03-16T01:54:13;100781.06;;;-0.07;92.74
60345;BME280;46188;52.324;8.032;2023-03-16T01:56:55;100779.19;;;-0.09;92.50
60345;BME280;46188;52.324;8.032;2023-03-16T01:59:27;100774.56;;;0.00;91.89
60345;BME280;46188;52.324;8.032;2023-03-16T02:01:55;100781.06;;;0.08;92.24
60345;BME280;46188;52.324;8.032;2023-03-16T02:04:44;100770.69;;;0.08;92.23
60345;BME280;46188;52.324;8.032;2023-03-16T02:07:12;100771.13;;;0.16;91.75
60345;BME280;46188;52.324;8.032;2023-03-16T02:09:43;100765.06;;;0.15;92.37
60345;BME280;46188;52.324;8.032;2023-03-16T02:12:10;100766.59;;;0.12;92.40
60345;BME280;46188;52.324;8.032;2023-03-16T02:14:42;100760.59;;;0.13;92.49
60345;BME280;46188;52.324;8.032;2023-03-16T02:17:08;100749.78;;;0.20;92.34
60345;BME280;46188;52.324;8.032;2023-03-16T02:22:06;100749.41;;;0.29;91.98
60345;BME280;46188;52.324;8.032;2023-03-16T02:24:31;100748.22;;;0.39;91.99
60345;BME280;46188;52.324;8.032;2023-03-16T02:27:03;100752.16;;;0.47;91.68
60345;BME280;46188;52.324;8.032;2023-03-16T02:29:52;100740.31;;;0.52;90.61
60345;BME280;46188;52.324;8.032;2023-03-16T02:32:19;100743.97;;;0.55;90.46
60345;BME280;46188;52.324;8.032;2023-03-16T02:34:45;100740.91;;;0.63;90.35
60345;BME280;46188;52.324;8.032;2023-03-16T02:37:11;100729.03;;;0.66;90.13
60345;BME280;46188;52.324;8.032;2023-03-16T02:39:36;100730.16;;;0.71;89.86
60345;BME280;46188;52.324;8.032;2023-03-16T02:42:02;100737.28;;;0.76;89.52
60345;BME280;46188;52.324;8.032;2023-03-16T02:44:32;100723.69;;;0.80;88.93
60345;BME280;46188;52.324;8.032;2023-03-16T02:47:02;100718.81;;;0.86;88.63
60345;BME280;46188;52.324;8.032;2023-03-16T02:49:36;100720.78;;;0.90;88.00
60345;BME280;46188;52.324;8.032;2023-03-16T02:52:03;100719.13;;;0.92;87.57
60345;BME280;46188;52.324;8.032;2023-03-16T02:54:29;100722.72;;;0.94;87.51
60345;BME280;46188;52.324;8.032;2023-03-16T02:56:54;100717.59;;;0.96;86.49
60345;BME280;46188;52.324;8.032;2023-03-16T02:59:20;100710.81;;;0.98;86.40
60345;BME280;46188;52.324;8.032;2023-03-16T03:01:45;100718.66;;;0.99;86.16
60345;BME280;46188;52.324;8.032;2023-03-16T03:04:10;100721.31;;;1.01;86.12
60345;BME280;46188;52.324;8.032;2023-03-16T03:06:36;100732.63;;;1.01;86.07
60345;BME280;46188;52.324;8.032;2023-03-16T03:09:01;100741.22;;;1.00;85.91
60345;BME280;46188;52.324;8.032;2023-03-16T03:11:27;100738.53;;;0.99;85.71
60345;BME280;46188;52.324;8.032;2023-03-16T03:13:53;100729.88;;;0.98;85.48
60345;BME280;46188;52.324;8.032;2023-03-16T03:16:19;100727.91;;;0.94;85.64
60345;BME280;46188;52.324;8.032;2023-03-16T03:18:45;100730.81;;;0.84;86.10
60345;BME280;46188;52.324;8.032;2023-03-16T03:21:11;100724.41;;;0.77;86.34
60345;BME280;46188;52.324;8.032;2023-03-16T03:23:36;100726.09;;;0.77;86.24
60345;BME280;46188;52.324;8.032;2023-03-16T03:26:01;100719.38;;;0.80;86.36
60345;BME280;46188;52.324;8.032;2023-03-16T03:28:28;100714.09;;;0.79;86.12
60345;BME280;46188;52.324;8.032;2023-03-16T03:30:54;100704.69;;;0.81;85.74
60345;BME280;46188;52.324;8.032;2023-03-16T03:33:19;100705.81;;;0.86;85.64
60345;BME280;46188;52.324;8.032;2023-03-16T03:35:47;100712.81;;;0.87;85.22
60345;BME280;46188;52.324;8.032;2023-03-16T03:38:17;100709.63;;;0.92;85.62
60345;BME280;46188;52.324;8.032;2023-03-16T03:40:42;100707.88;;;0.91;85.04
60345;BME280;46188;52.324;8.032;2023-03-16T03:43:07;100699.25;;;0.92;84.79
60345;BME280;46188;52.324;8.032;2023-03-16T03:45:32;100698.72;;;0.98;85.03
60345;BME280;46188;52.324;8.032;2023-03-16T03:47:58;100701.31;;;0.98;84.79
60345;BME280;46188;52.324;8.032;2023-03-16T03:50:23;100703.31;;;1.04;84.09
60345;BME280;46188;52.324;8.032;2023-03-16T03:52:48;100705.19;;;1.06;83.44
60345;BME280;46188;52.324;8.032;2023-03-16T03:55:14;100701.06;;;1.10;83.52
60345;BME280;46188;52.324;8.032;2023-03-16T03:57:39;100707.38;;;1.15;83.30
60345;BME280;46188;52.324;8.032;2023-03-16T04:00:05;100696.28;;;1.18;83.39
60345;BME280;46188;52.324;8.032;2023-03-16T04:02:36;100706.00;;;1.22;82.95
60345;BME280;46188;52.324;8.032;2023-03-16T04:05:02;100691.47;;;1.25;83.09
60345;BME280;46188;52.324;8.032;2023-03-16T04:07:27;100697.41;;;1.23;82.17
60345;BME280;46188;52.324;8.032;2023-03-16T04:09:52;100699.25;;;1.25;82.38
60345;BME280;46188;52.324;8.032;2023-03-16T04:12:18;100700.38;;;1.31;82.13
60345;BME280;46188;52.324;8.032;2023-03-16T04:14:43;100692.75;;;1.34;82.38
60345;BME280;46188;52.324;8.032;2023-03-16T04:17:08;100689.53;;;1.38;82.24
60345;BME280;46188;52.324;8.032;2023-03-16T04:19:33;100688.03;;;1.43;81.61
60345;BME280;46188;52.324;8.032;2023-03-16T04:21:59;100687.97;;;1.41;81.71
60345;BME280;46188;52.324;8.032;2023-03-16T04:24:24;100685.38;;;1.41;81.73
60345;BME280;46188;52.324;8.032;2023-03-16T04:26:49;100679.50;;;1.45;81.23
60345;BME280;46188;52.324;8.032;2023-03-16T04:29:15;100681.53;;;1.51;81.72
60345;BME280;46188;52.324;8.032;2023-03-16T04:31:43;100681.47;;;1.50;81.59
60345;BME280;46188;52.324;8.032;2023-03-16T04:34:10;100674.53;;;1.50;81.46
60345;BME280;46188;52.324;8.032;2023-03-16T04:36:38;100670.38;;;1.54;81.29
60345;BME280;46188;52.324;8.032;2023-03-16T04:39:04;100668.72;;;1.54;80.92
60345;BME280;46188;52.324;8.032;2023-03-16T04:41:30;100668.91;;;1.59;80.96
60345;BME280;46188;52.324;8.032;2023-03-16T04:43:56;100668.91;;;1.59;80.16
60345;BME280;46188;52.324;8.032;2023-03-16T04:46:22;100668.03;;;1.58;80.27
60345;BME280;46188;52.324;8.032;2023-03-16T04:48:48;100663.06;;;1.63;80.61
60345;BME280;46188;52.324;8.032;2023-03-16T04:51:13;100655.44;;;1.66;80.44
60345;BME280;46188;52.324;8.032;2023-03-16T04:53:39;100656.31;;;1.66;80.83
60345;BME280;46188;52.324;8.032;2023-03-16T04:56:04;100656.31;;;1.66;80.83
60345;BME280;46188;52.324;8.032;2023-03-16T04:58:31;100657.28;;;1.69;80.09
60345;BME280;46188;52.324;8.032;2023-03-16T05:00:56;100659.22;;;1.73;80.30
60345;BME280;46188;52.324;8.032;2023-03-16T05:03:22;100651.44;;;1.73;79.82
60345;BME280;46188;52.324;8.032;2023-03-16T05:05:47;100660.25;;;1.76;80.48
60345;BME280;46188;52.324;8.032;2023-03-16T05:08:13;100656.03;;;1.78;79.79
60345;BME280;46188;52.324;8.032;2023-03-16T05:10:39;100649.22;;;1.80;79.86
60345;BME280;46188;52.324;8.032;2023-03-16T05:13:05;100657.97;;;1.82;80.04
60345;BME280;46188;52.324;8.032;2023-03-16T05:15:30;100652.84;;;1.84;80.24
60345;BME280;46188;52.324;8.032;2023-03-16T05:17:56;100656.34;;;1.84;80.53
60345;BME280;46188;52.324;8.032;2023-03-16T05:20:21;100644.28;;;1.87;80.56
60345;BME280;46188;52.324;8.032;2023-03-16T05:22:48;100646.81;;;1.85;80.14
60345;BME280;46188;52.324;8.032;2023-03-16T05:25:14;100637.41;;;1.87;79.87
60345;BME280;46188;52.324;8.032;2023-03-16T05:27:41;100634.03;;;1.90;79.75
60345;BME280;46188;52.324;8.032;2023-03-16T05:30:09;100632.34;;;1.90;79.96
60345;BME280;46188;52.324;8.032;2023-03-16T05:32:34;100623.66;;;1.90;80.00
60345;BME280;46188;52.324;8.032;2023-03-16T05:34:59;100623.81;;;1.93;79.79
60345;BME280;46188;52.324;8.032;2023-03-16T05:37:27;100623.88;;;1.94;79.44
60345;BME280;46188;52.324;8.032;2023-03-16T05:39:52;100626.56;;;1.96;79.75
60345;BME280;46188;52.324;8.032;2023-03-16T05:42:17;100629.31;;;1.99;78.94
60345;BME280;46188;52.324;8.032;2023-03-16T05:44:43;100620.59;;;1.98;79.21
60345;BME280;46188;52.324;8.032;2023-03-16T05:47:09;100621.69;;;2.03;79.41
60345;BME280;46188;52.324;8.032;2023-03-16T05:49:34;100624.38;;;2.05;79.27
60345;BME280;46188;52.324;8.032;2023-03-16T05:51:59;100618.28;;;2.05;79.57
60345;BME280;46188;52.324;8.032;2023-03-16T05:54:24;100620.91;;;2.05;79.08
60345;BME280;46188;52.324;8.032;2023-03-16T05:56:50;100612.38;;;2.07;79.04
60345;BME280;46188;52.324;8.032;2023-03-16T05:59:15;100616.00;;;2.11;78.57
60345;BME280;46188;52.324;8.032;2023-03-16T06:01:42;100623.03;;;2.13;79.06
60345;BME280;46188;52.324;8.032;2023-03-16T06:04:07;100627.50;;;2.16;78.93
60345;BME280;46188;52.324;8.032;2023-03-16T06:06:32;100626.72;;;2.18;78.96
60345;BME280;46188;52.324;8.032;2023-03-16T06:08:57;100622.53;;;2.20;78.96
60345;BME280;46188;52.324;8.032;2023-03-16T06:11:23;100625.28;;;2.24;78.36
60345;BME280;46188;52.324;8.032;2023-03-16T06:13:48;100614.94;;;2.25;78.02
60345;BME280;46188;52.324;8.032;2023-03-16T06:16:14;100615.13;;;2.30;77.93
60345;BME280;46188;52.324;8.032;2023-03-16T06:18:41;100610.91;;;2.32;77.35
60345;BME280;46188;52.324;8.032;2023-03-16T06:21:06;100605.81;;;2.35;77.40
60345;BME280;46188;52.324;8.032;2023-03-16T06:23:32;100606.88;;;2.38;76.73
60345;BME280;46188;52.324;8.032;2023-03-16T06:25:58;100605.38;;;2.44;76.83
60345;BME280;46188;52.324;8.032;2023-03-16T06:28:24;100607.13;;;2.45;76.73
60345;BME280;46188;52.324;8.032;2023-03-16T06:30:53;100612.56;;;2.49;76.16
60345;BME280;46188;52.324;8.032;2023-03-16T06:33:19;100614.50;;;2.53;76.10
60345;BME280;46188;52.324;8.032;2023-03-16T06:35:44;100626.00;;;2.58;75.11
60345;BME280;46188;52.324;8.032;2023-03-16T06:38:12;100622.72;;;2.63;75.27
60345;BME280;46188;52.324;8.032;2023-03-16T06:40:37;100629.84;;;2.67;75.01
60345;BME280;46188;52.324;8.032;2023-03-16T06:43:02;100615.31;;;2.72;75.37
60345;BME280;46188;52.324;8.032;2023-03-16T06:45:27;100614.63;;;2.76;75.70
60345;BME280;46188;52.324;8.032;2023-03-16T06:47:53;100621.78;;;2.80;75.23
60345;BME280;46188;52.324;8.032;2023-03-16T06:50:18;100617.59;;;2.84;74.70
60345;BME280;46188;52.324;8.032;2023-03-16T06:52:43;100619.56;;;2.89;74.79
60345;BME280;46188;52.324;8.032;2023-03-16T06:55:09;100630.97;;;2.91;74.23
60345;BME280;46188;52.324;8.032;2023-03-16T06:57:36;100630.13;;;2.92;73.98
60345;BME280;46188;52.324;8.032;2023-03-16T07:00:01;100635.47;;;2.95;74.56
60345;BME280;46188;52.324;8.032;2023-03-16T07:02:28;100640.81;;;2.99;73.45
60345;BME280;46188;52.324;8.032;2023-03-16T07:04:53;100641.75;;;3.01;73.04
60345;BME280;46188;52.324;8.032;2023-03-16T07:07:18;100637.44;;;3.01;72.47
60345;BME280;46188;52.324;8.032;2023-03-16T07:09:44;100637.50;;;3.03;72.32
60345;BME280;46188;52.324;8.032;2023-03-16T07:12:09;100645.44;;;3.06;72.52
60345;BME280;46188;52.324;8.032;2023-03-16T07:14:35;100639.44;;;3.07;71.78
60345;BME280;46188;52.324;8.032;2023-03-16T07:17:00;100650.00;;;3.10;71.82
60345;BME280;46188;52.324;8.032;2023-03-16T07:19:26;100658.91;;;3.15;72.17
60345;BME280;46188;52.324;8.032;2023-03-16T07:21:52;100657.16;;;3.16;71.18
60345;BME280;46188;52.324;8.032;2023-03-16T07:24:18;100667.72;;;3.19;71.49
60345;BME280;46188;52.324;8.032;2023-03-16T07:26:43;100657.38;;;3.20;70.55
60345;BME280;46188;52.324;8.032;2023-03-16T07:29:10;100658.41;;;3.24;71.57
60345;BME280;46188;52.324;8.032;2023-03-16T07:31:36;100652.44;;;3.26;71.15
60345;BME280;46188;52.324;8.032;2023-03-16T07:34:02;100649.97;;;3.29;71.20
60345;BME280;46188;52.324;8.032;2023-03-16T07:36:28;100647.06;;;3.43;71.77
60345;BME280;46188;52.324;8.032;2023-03-16T07:38:53;100638.66;;;3.50;71.82
60345;BME280;46188;52.324;8.032;2023-03-16T07:41:19;100644.03;;;3.53;71.80
60345;BME280;46188;52.324;8.032;2023-03-16T07:43:45;100647.56;;;3.55;71.87
60345;BME280;46188;52.324;8.032;2023-03-16T07:46:11;100645.09;;;3.58;70.90
60345;BME280;46188;52.324;8.032;2023-03-16T07:48:39;100645.31;;;3.63;71.56
60345;BME280;46188;52.324;8.032;2023-03-16T07:51:06;100649.78;;;3.67;71.43
60345;BME280;46188;52.324;8.032;2023-03-16T07:53:31;100653.47;;;3.72;71.76
60345;BME280;46188;52.324;8.032;2023-03-16T07:55:57;100660.56;;;3.75;70.88
60345;BME280;46188;52.324;8.032;2023-03-16T07:58:22;100652.88;;;3.78;70.85
60345;BME280;46188;52.324;8.032;2023-03-16T08:00:47;100653.69;;;3.77;70.38
60345;BME280;46188;52.324;8.032;2023-03-16T08:03:12;100649.19;;;3.73;69.50
60345;BME280;46188;52.324;8.032;2023-03-16T08:05:38;100660.56;;;3.75;70.48
60345;BME280;46188;52.324;8.032;2023-03-16T08:08:03;100651.00;;;3.75;69.89
60345;BME280;46188;52.324;8.032;2023-03-16T08:10:29;100658.16;;;3.79;70.05
60345;BME280;46188;52.324;8.032;2023-03-16T08:12:54;100665.97;;;3.79;70.05
60345;BME280;46188;52.324;8.032;2023-03-16T08:15:19;100661.63;;;3.80;69.68
60345;BME280;46188;52.324;8.032;2023-03-16T08:17:45;100663.44;;;3.81;70.00
60345;BME280;46188;52.324;8.032;2023-03-16T08:20:12;100660.91;;;3.84;69.59
60345;BME280;46188;52.324;8.032;2023-03-16T08:22:39;100665.25;;;3.83;69.51
60345;BME280;46188;52.324;8.032;2023-03-16T08:25:05;100668.88;;;3.87;69.69
60345;BME280;46188;52.324;8.032;2023-03-16T08:27:34;100664.69;;;3.91;69.48
60345;BME280;46188;52.324;8.032;2023-03-16T08:29:59;100662.38;;;3.98;69.93
60345;BME280;46188;52.324;8.032;2023-03-16T08:32:29;100668.72;;;4.05;69.12
60345;BME280;46188;52.324;8.032;2023-03-16T08:34:54;100654.94;;;4.07;69.04
60345;BME280;46188;52.324;8.032;2023-03-16T08:37:21;100659.44;;;4.12;68.56
60345;BME280;46188;52.324;8.032;2023-03-16T08:39:48;100658.75;;;4.16;68.77
60345;BME280;46188;52.324;8.032;2023-03-16T08:42:15;100657.16;;;4.19;68.82
60345;BME280;46188;52.324;8.032;2023-03-16T08:44:41;100667.91;;;4.27;69.10
60345;BME280;46188;52.324;8.032;2023-03-16T08:47:07;100654.25;;;4.34;68.64
60345;BME280;46188;52.324;8.032;2023-03-16T08:49:33;100660.53;;;4.39;68.27
60345;BME280;46188;52.324;8.032;2023-03-16T08:51:58;100663.28;;;4.42;67.25
60345;BME280;46188;52.324;8.032;2023-03-16T08:54:24;100654.78;;;4.48;67.62
60345;BME280;46188;52.324;8.032;2023-03-16T08:56:50;100648.00;;;4.53;68.21
60345;BME280;46188;52.324;8.032;2023-03-16T08:59:15;100651.72;;;4.58;67.71
60345;BME280;46188;52.324;8.032;2023-03-16T09:01:41;100649.47;;;4.69;67.80
60345;BME280;46188;52.324;8.032;2023-03-16T09:04:06;100639.47;;;4.81;67.38
60345;BME280;46188;52.324;8.032;2023-03-16T09:06:31;100647.72;;;4.92;66.77
60345;BME280;46188;52.324;8.032;2023-03-16T09:08:57;100644.84;;;5.09;66.10
60345;BME280;46188;52.324;8.032;2023-03-16T09:11:22;100650.78;;;5.29;66.42
60345;BME280;46188;52.324;8.032;2023-03-16T09:13:50;100646.13;;;5.46;64.64
60345;BME280;46188;52.324;8.032;2023-03-16T09:16:16;100645.84;;;5.64;65.73
60345;BME280;46188;52.324;8.032;2023-03-16T09:18:42;100637.34;;;5.69;65.76
60345;BME280;46188;52.324;8.032;2023-03-16T09:21:09;100639.91;;;5.68;65.20
60345;BME280;46188;52.324;8.032;2023-03-16T09:23:37;100650.56;;;5.74;66.13
60345;BME280;46188;52.324;8.032;2023-03-16T09:26:04;100644.50;;;5.75;65.33
60345;BME280;46188;52.324;8.032;2023-03-16T09:28:31;100637.47;;;5.74;65.52
60345;BME280;46188;52.324;8.032;2023-03-16T09:30:57;100640.94;;;5.73;65.03
60345;BME280;46188;52.324;8.032;2023-03-16T09:33:24;100635.06;;;5.80;65.48
60345;BME280;46188;52.324;8.032;2023-03-16T09:35:50;100619.31;;;5.79;65.53
60345;BME280;46188;52.324;8.032;2023-03-16T09:38:17;100627.19;;;5.79;65.69
60345;BME280;46188;52.324;8.032;2023-03-16T09:40:42;100630.78;;;5.82;65.40
60345;BME280;46188;52.324;8.032;2023-03-16T09:43:37;100629.13;;;5.84;65.47
60345;BME280;46188;52.324;8.032;2023-03-16T09:46:11;100632.88;;;5.93;65.98
60345;BME280;46188;52.324;8.032;2023-03-16T09:48:38;100615.50;;;5.95;65.34
60345;BME280;46188;52.324;8.032;2023-03-16T09:51:07;100618.28;;;5.99;65.56
60345;BME280;46188;52.324;8.032;2023-03-16T09:53:34;100620.91;;;5.99;65.05
60345;BME280;46188;52.324;8.032;2023-03-16T09:56:09;100631.13;;;5.93;65.18
60345;BME280;46188;52.324;8.032;2023-03-16T09:58:35;100633.03;;;5.97;65.64
60345;BME280;46188;52.324;8.032;2023-03-16T10:01:10;100635.66;;;5.97;65.73
60345;BME280;46188;52.324;8.032;2023-03-16T10:03:57;100629.53;;;5.97;65.02
60345;BME280;46188;52.324;8.032;2023-03-16T10:06:26;100635.66;;;5.97;64.25
60345;BME280;46188;52.324;8.032;2023-03-16T10:11:29;100627.13;;;6.03;64.96
60345;BME280;46188;52.324;8.032;2023-03-16T10:14:03;100623.84;;;6.10;64.71
60345;BME280;46188;52.324;8.032;2023-03-16T10:16:37;100627.44;;;6.14;64.54
60345;BME280;46188;52.324;8.032;2023-03-16T10:19:28;100626.81;;;6.21;65.56
60345;BME280;46188;52.324;8.032;2023-03-16T10:21:56;100626.09;;;6.26;65.38
60345;BME280;46188;52.324;8.032;2023-03-16T10:24:42;100618.25;;;6.26;65.03
60345;BME280;46188;52.324;8.032;2023-03-16T10:27:17;100617.47;;;6.29;65.05
60345;BME280;46188;52.324;8.032;2023-03-16T10:29:44;100610.53;;;6.31;65.52
60345;BME280;46188;52.324;8.032;2023-03-16T10:32:15;100625.38;;;6.31;65.07
60345;BME280;46188;52.324;8.032;2023-03-16T10:34:59;100610.75;;;6.37;65.24
60345;BME280;46188;52.324;8.032;2023-03-16T10:37:29;100613.56;;;6.45;64.89
60345;BME280;46188;52.324;8.032;2023-03-16T10:39:55;100608.63;;;6.54;65.38
60345;BME280;46188;52.324;8.032;2023-03-16T10:42:21;100607.03;;;6.59;64.52
60345;BME280;46188;52.324;8.032;2023-03-16T10:44:48;100609.81;;;6.65;64.34
60345;BME280;46188;52.324;8.032;2023-03-16T10:47:22;100603.88;;;6.71;64.61
60345;BME280;46188;52.324;8.032;2023-03-16T10:49:48;100596.22;;;6.79;64.72
60345;BME280;46188;52.324;8.032;2023-03-16T10:52:36;100600.88;;;6.89;64.97
60345;BME280;46188;52.324;8.032;2023-03-16T10:55:16;100605.47;;;6.98;64.18
60345;BME280;46188;52.324;8.032;2023-03-16T10:57:51;100585.47;;;7.01;64.00
60345;BME280;46188;52.324;8.032;2023-03-16T11:00:34;100583.94;;;7.10;63.88
60345;BME280;46188;52.324;8.032;2023-03-16T11:03:19;100593.97;;;7.25;63.86
60345;BME280;46188;52.324;8.032;2023-03-16T11:05:55;100602.97;;;7.34;63.98
60345;BME280;46188;52.324;8.032;2023-03-16T11:08:24;100597.75;;;7.36;63.57
60345;BME280;46188;52.324;8.032;2023-03-16T11:10:56;100595.19;;;7.37;63.75
60345;BME280;46188;52.324;8.032;2023-03-16T11:13:26;100599.34;;;7.29;63.18
60345;BME280;46188;52.324;8.032;2023-03-16T11:15:57;100601.88;;;7.26;63.44
60345;BME280;46188;52.324;8.032;2023-03-16T11:18:33;100603.66;;;7.27;63.46
60345;BME280;46188;52.324;8.032;2023-03-16T11:21:06;100602.72;;;7.25;63.47
60345;BME280;46188;52.324;8.032;2023-03-16T11:23:33;100595.53;;;7.18;62.53
60345;BME280;46188;52.324;8.032;2023-03-16T11:26:06;100594.63;;;7.16;63.08
60345;BME280;46188;52.324;8.032;2023-03-16T11:28:39;100605.06;;;7.14;63.22
60345;BME280;46188;52.324;8.032;2023-03-16T11:31:51;100591.03;;;7.12;63.35
60345;BME280;46188;52.324;8.032;2023-03-16T11:34:21;100584.72;;;7.06;63.76
60345;BME280;46188;52.324;8.032;2023-03-16T11:37:24;100591.41;;;6.94;64.28
60345;BME280;46188;52.324;8.032;2023-03-16T11:45:40;100593.56;;;6.77;66.85
60345;BME280;46188;52.324;8.032;2023-03-16T11:48:20;100592.59;;;6.74;67.59
60345;BME280;46188;52.324;8.032;2023-03-16T11:53:48;100587.16;;;6.68;67.67
60345;BME280;46188;52.324;8.032;2023-03-16T11:56:21;100589.78;;;6.68;68.25
60345;BME280;46188;52.324;8.032;2023-03-16T11:59:22;100561.19;;;6.75;68.55
60345;BME280;46188;52.324;8.032;2023-03-16T12:02:00;100566.59;;;6.81;68.71
60345;BME280;46188;52.324;8.032;2023-03-16T12:07:25;100556.50;;;6.95;69.61
60345;BME280;46188;52.324;8.032;2023-03-16T12:10:21;100560.97;;;6.99;69.45
60345;BME280;46188;52.324;8.032;2023-03-16T12:15:53;100551.88;;;7.18;69.50
60345;BME280;46188;52.324;8.032;2023-03-16T12:18:23;100546.84;;;7.28;70.20
60345;BME280;46188;52.324;8.032;2023-03-16T12:20:54;100523.22;;;7.26;70.00
60345;BME280;46188;52.324;8.032;2023-03-16T12:23:29;100520.78;;;7.34;70.21
60345;BME280;46188;52.324;8.032;2023-03-16T12:25:57;100517.50;;;7.43;70.43
60345;BME280;46188;52.324;8.032;2023-03-16T12:28:27;100523.97;;;7.57;70.16
60345;BME280;46188;52.324;8.032;2023-03-16T12:31:12;100512.66;;;7.58;70.33
60345;BME280;46188;52.324;8.032;2023-03-16T12:34:24;100504.66;;;7.53;70.12
60345;BME280;46188;52.324;8.032;2023-03-16T12:40:21;100487.16;;;7.54;70.05
60345;BME280;46188;52.324;8.032;2023-03-16T12:45:26;100487.16;;;7.54;68.90
60345;BME280;46188;52.324;8.032;2023-03-16T12:48:22;100487.00;;;7.48;68.87
60345;BME280;46188;52.324;8.032;2023-03-16T12:50:53;100467.94;;;7.53;69.17
60345;BME280;46188;52.324;8.032;2023-03-16T12:53:40;100450.75;;;7.66;69.16
60345;BME280;46188;52.324;8.032;2023-03-16T12:56:10;100440.44;;;7.75;68.73
60345;BME280;46188;52.324;8.032;2023-03-16T12:58:41;100438.78;;;7.81;68.11
60345;BME280;46188;52.324;8.032;2023-03-16T13:01:10;100419.75;;;7.89;68.64
60345;BME280;46188;52.324;8.032;2023-03-16T13:03:36;100426.84;;;7.95;68.64
60345;BME280;46188;52.324;8.032;2023-03-16T13:06:02;100430.25;;;7.89;67.82
60345;BME280;46188;52.324;8.032;2023-03-16T13:08:40;100430.22;;;7.88;67.73
60345;BME280;46188;52.324;8.032;2023-03-16T13:11:10;100429.31;;;7.87;66.34
60345;BME280;46188;52.324;8.032;2023-03-16T13:13:50;100424.09;;;7.89;66.81
60345;BME280;46188;52.324;8.032;2023-03-16T13:16:25;100411.22;;;8.00;65.74
60345;BME280;46188;52.324;8.032;2023-03-16T13:18:52;100405.22;;;8.07;65.47
60345;BME280;46188;52.324;8.032;2023-03-16T13:21:21;100404.56;;;8.19;64.30
60345;BME280;46188;52.324;8.032;2023-03-16T13:23:59;100396.84;;;8.26;63.71
60345;BME280;46188;52.324;8.032;2023-03-16T13:26:45;100388.50;;;8.46;63.63
60345;BME280;46188;52.324;8.032;2023-03-16T13:29:26;100385.41;;;8.72;64.00
60345;BME280;46188;52.324;8.032;2023-03-16T13:31:54;100381.19;;;8.80;63.10
60345;BME280;46188;52.324;8.032;2023-03-16T13:34:29;100376.75;;;8.76;62.90